CheckWX is a tool to help pilots better visualize weather data.  It is not intended as a substitute for an official pre-flight weather briefing.

07:29:13 UTC

KSGJ METAR
Northeast Florida Regional Airport
St Augustine, Florida, USA
Current

33 mins ago

KSGJ 210656Z AUTO 32003KT 10SM FEW018 20/19 A2999 RMK AO2 SLP154 T02000189 $
Observed
Oct-21 @ 06:56 UTC
Wind
  • 320° at 3 KTS
Visibility
10 SM
Flight Rules
VFR
Cloud Levels
  • Few at 1,800' AGL
Temperature
20°C / 68°F
Dewpoint
19°C / 66°F
Humidity
94%
Altimeter
29.99" Hg
Pressure
1015.62 hPa
Previous

2 hours ago

KSGJ 210556Z AUTO 32005KT 10SM CLR 19/18 A2999 RMK AO2 SLP155 T01940183 10239 20194 53000 $
Observed
Oct-21 @ 05:56 UTC
Wind
  • 320° at 5 KTS
Visibility
10 SM
Flight Rules
VFR
Cloud Levels
  • Clear skies
Temperature
19°C / 66°F
Dewpoint
18°C / 64°F
Humidity
94%
Altimeter
29.99" Hg
Pressure
1015.62 hPa
Previous

3 hours ago

KSGJ 210456Z AUTO 00000KT 10SM CLR 20/18 A2999 RMK AO2 SLP153 T02000183 402830194 $
Observed
Oct-21 @ 04:56 UTC
Visibility
10 SM
Flight Rules
VFR
Cloud Levels
  • Clear skies
Temperature
20°C / 68°F
Dewpoint
18°C / 64°F
Humidity
88%
Altimeter
29.99" Hg
Pressure
1015.62 hPa